WetterOnline ( http://www.wetteronline.de )

Wetter aktuell Südschwarzwald (in 1400m)

Aktuelles Wetter: Feldberg/Schwarzwald (1493m)

6-stündlich | Neueste Meldungen
Ortszeit Temperatur Wetter
Sa, 22.09. 2:00 3.2° C wolkig
Fr, 21.09. 20:00 5.0° C Regen
Fr, 21.09. 14:00 14.2° C bewölkt
Fr, 21.09. 8:00 14.6° C wolkenlos
Fr, 21.09. 2:00 14.8° C wolkenlos
Do, 20.09. 20:00 15.9° C wolkenlos
Do, 20.09. 14:00 17.4° C wolkig
Do, 20.09. 8:00 14.3° C wolkenlos
Ortszeit Temperatur Wetter
Sa, 22.09. 6:30 2.9° C wolkig
Sa, 22.09. 6:20 2.9° C wolkig
Sa, 22.09. 6:10 3.0° C leicht bewölkt
Sa, 22.09. 6:00 3.0° C wolkenlos
Sa, 22.09. 5:50 3.0° C wolkenlos
Sa, 22.09. 5:40 2.9° C leicht bewölkt
Sa, 22.09. 5:30 2.9° C wolkig
Sa, 22.09. 5:00 2.9° C wolkig
Sa, 22.09. 4:30 3.1° C bewölkt
Sa, 22.09. 4:00 3.0° C wolkig
Sa, 22.09. 3:30 2.9° C wolkig
Ortszeit Relative Feuchte Sichtweite
Sa, 22.09. 2:00 94% 23 km
Fr, 21.09. 20:00 96% 0.2 km
Fr, 21.09. 14:00 76% 35 km
Fr, 21.09. 8:00 64% 50 km
Fr, 21.09. 2:00 71% 35 km
Do, 20.09. 20:00 62% 45 km
Do, 20.09. 14:00 71% 45 km
Do, 20.09. 8:00 74% 45 km
Ortszeit Relative Feuchte Sichtweite
Sa, 22.09. 6:30 92% 30 km
Sa, 22.09. 6:20 92% -
Sa, 22.09. 6:10 90% -
Sa, 22.09. 6:00 90% 35 km
Sa, 22.09. 5:50 90% -
Sa, 22.09. 5:40 91% -
Sa, 22.09. 5:30 92% 35 km
Sa, 22.09. 5:00 94% 10 km
Sa, 22.09. 4:30 87% 45 km
Sa, 22.09. 4:00 92% 5.0 km
Sa, 22.09. 3:30 94% 12 km
Ortszeit Niederschlagsmenge Niederschlagsart
Sa, 22.09. 2:00 1 l/m2 in 6 Std. Schnee, Niederschlag
Fr, 21.09. 20:00 4 l/m2 in 12 Std. Schnee, Regen
Fr, 21.09. 14:00 0.2 l/m2 in 6 Std. Regen, Niederschlag
Fr, 21.09. 8:00 0.0 l/m2 in 12 Std. -
Fr, 21.09. 2:00 0.0 l/m2 in 6 Std. -
Do, 20.09. 20:00 0.0 l/m2 in 12 Std. -
Do, 20.09. 14:00 0.0 l/m2 in 6 Std. -
Do, 20.09. 8:00 0.0 l/m2 in 12 Std. -
Ortszeit Niederschlagsmenge Niederschlagsart
Sa, 22.09. 6:30 0.0 l/m2 in 1 Std. -
Sa, 22.09. 6:20 keine Meldung -
Sa, 22.09. 6:10 keine Meldung -
Sa, 22.09. 6:00 0.0 l/m2 in 1 Std. -
Sa, 22.09. 5:50 keine Meldung -
Sa, 22.09. 5:40 keine Meldung -
Sa, 22.09. 5:30 0.0 l/m2 in 1 Std. -
Sa, 22.09. 5:00 0.0 l/m2 in 1 Std. -
Sa, 22.09. 4:30 0.0 l/m2 in 1 Std. -
Sa, 22.09. 4:00 0.0 l/m2 in 1 Std. -
Sa, 22.09. 3:30 0.0 l/m2 in 1 Std. -
Ortszeit Stärke Spitze Richtung
km/h Bft. km/h Grad Sektor
Sa, 22.09. 2:00 33 5 70 270° W
Fr, 21.09. 20:00 54 7 94 280° W
Fr, 21.09. 14:00 37 5 83 220° SW
Fr, 21.09. 8:00 50 7 65 220° SW
Fr, 21.09. 2:00 36 5 43 190° S
Do, 20.09. 20:00 15 3 31 200° S
Do, 20.09. 14:00 13 3 39 240° SW
Do, 20.09. 8:00 24 4 26 220° SW
Ortszeit Stärke Spitze Richtung
km/h Bft. km/h Grad Sektor
Sa, 22.09. 6:30 22 4 29 250° W
Sa, 22.09. 6:20 22 4 - 250° W
Sa, 22.09. 6:10 22 4 - 250° W
Sa, 22.09. 6:00 22 4 32 250° W
Sa, 22.09. 5:50 22 4 - 250° W
Sa, 22.09. 5:40 22 4 - 260° W
Sa, 22.09. 5:30 22 4 32 260° W
Sa, 22.09. 5:00 20 4 31 250° W
Sa, 22.09. 4:30 22 4 32 270° W
Sa, 22.09. 4:00 22 4 31 280° W
Sa, 22.09. 3:30 20 4 31 280° W
Ortszeit Untergrenze Bedeckung Gattung
total tief tief mittel hoch
Sa, 22.09. 2:00 30 m 7/8 5/8 - - -
Fr, 21.09. 20:00 <30 m 8/8 8/8 - - -
Fr, 21.09. 14:00 1260 m 7/8 7/8 - - -
Fr, 21.09. 8:00 7200 m 0/8 0/8 - - -
Fr, 21.09. 2:00 - 0/8 0/8 - - -
Do, 20.09. 20:00 - 0/8 0/8 - - -
Do, 20.09. 14:00 810 m 6/8 6/8 - - -
Do, 20.09. 8:00 - 0/8 0/8 - - -
Ortszeit Bedeckungsgrad in Achtel und Wolkenuntergrenze
Sa, 22.09. 6:30 4(4800m) 6(7500m)
Sa, 22.09. 6:20 4(4800m) 6(7500m)
Sa, 22.09. 6:10 3(7200m)
Sa, 22.09. 6:00 4(7500m)
Sa, 22.09. 5:50 keine Wolken
Sa, 22.09. 5:40 2(5100m)
Sa, 22.09. 5:30 1(150m) 7(5100m)
Sa, 22.09. 5:00 2(120m) 4(5100m) 7(5700m)
Sa, 22.09. 4:30 7(5100m)
Sa, 22.09. 4:00 1(60m) 7(5100m)
Sa, 22.09. 3:30 2(90m) 7(5100m)
Ortszeit Stationsdruck (hPa) Tendenz (hPa in 3 Std.)
Sa, 22.09. 2:00 855 + 1,2
Fr, 21.09. 20:00 852 + 1,6
Fr, 21.09. 14:00 851 - 1,0
Fr, 21.09. 8:00 851 - 0,8
Fr, 21.09. 2:00 853 - 1,5
Do, 20.09. 20:00 855 - 0,8
Do, 20.09. 14:00 857 - 0,7
Do, 20.09. 8:00 857 - 0,1
Ortszeit Stationsdruck (hPa) Tendenz (hPa in 3 Std.)
Sa, 22.09. 6:30 856 + 0,1
Sa, 22.09. 6:20 856 keine Meldung
Sa, 22.09. 6:10 856 keine Meldung
Sa, 22.09. 6:00 855 + 0,2
Sa, 22.09. 5:50 855 keine Meldung
Sa, 22.09. 5:40 855 keine Meldung
Sa, 22.09. 5:30 855 + 0,1
Sa, 22.09. 5:00 855 + 0,3
Sa, 22.09. 4:30 855 + 0,5
Sa, 22.09. 4:00 855 + 0,6
Sa, 22.09. 3:30 855 + 1,1
Ortszeit Schneehöhe (cm)
Sa, 22.09. 2:00 0
Fr, 21.09. 20:00 0
Fr, 21.09. 14:00 0
Fr, 21.09. 8:00 0
Fr, 21.09. 2:00 0
Do, 20.09. 20:00 0
Do, 20.09. 14:00 0
Do, 20.09. 8:00 0
Ortszeit Schneehöhe (cm)
Sa, 22.09. 6:30 0
Sa, 22.09. 6:20 0
Sa, 22.09. 6:10 0
Sa, 22.09. 6:00 0
Sa, 22.09. 5:50 0
Sa, 22.09. 5:40 0
Sa, 22.09. 5:30 0
Sa, 22.09. 5:00 0
Sa, 22.09. 4:30 0
Sa, 22.09. 4:00 0
Sa, 22.09. 3:30 0
Link zu dieser Seite / Seite empfehlen

Das Wetter in ...